Karlovy Vary, Czech Republic

6:26 PM CET on January 30, 2015 (GMT +0100)
IKARLOVA12 | Change Station
CLOSE
Current Station
Personal Weather Station
Location: Hroznetin, Karlovarsky kraj
Elevation: 1476 ft
Nearby Weather Stations

Elev 1476 ft 50.31 °N, 12.87 °E | Updated 4 minutes ago

Light Snow
Light Snow
27.9 °F
Feels Like 28 °F
N
2.0
Wind Variable Wind from WSW
Gusts 5.0 mph

Today
High -- | Low -- °F
--% Chance of Precip.
Yesterday
High -- | Low -- °F
Precip. -- in
7:45 AM 4:57 PM
Waxing Gibbous, 84% visible
Pressure 28.80 in
Visibility 6.2 miles
Clouds Few 1300 ft
Scattered Clouds 1700 ft
Mostly Cloudy 2400 ft
Windchill 28 °F
Dew Point 26 °F
Humidity 91%
Rainfall 0.36 in
Snow Depth Not available.
UV 0 out of 12
Pollen Not available.
Air Quality Not available.
Flu Activity Not available.
METAR EDQM 301720Z 23009KT 9999 -SN FEW013 SCT017 BKN024 M03/M05 Q0975

More Conditions Fewer Conditions

Pressure 28.80 in
Visibility 6.2 miles
Clouds Few 1300 ft
Scattered Clouds 1700 ft
Mostly Cloudy 2400 ft
Windchill 28 °F
Dew Point 26 °F
Humidity 91%
Rainfall 0.36 in
Snow Depth Not available.
UV 0 out of 12
Pollen Not available.
Air Quality Not available.
Flu Activity Not available.
METAR EDQM 301720Z 23009KT 9999 -SN FEW013 SCT017 BKN024 M03/M05 Q0975

More Conditions Fewer Conditions

10-Day Weather Forecast

Almanac

Astronomy

Jan. 30, 2015 Rise Set
Actual Time
Civil Twilight
Nautical Twilight
Astronomical Twilight
Moon
Length of Visible Light
Length of Day
Tomorrow will be .
, % of the Moon is Illuminated

Today's Extremes

Country Highs Country Lows

Community

WunderPhotos

Upload Photos

1,791,826 photos uploaded!

WunderBlogs® & News

Nearby

Air Quality

  Air Quality AQ Index Pollutant
Not available.

Snow Depth

Station Depth Elevation

Earthquake Activity

City Distance Mag. Time & Date
Minimum magnitude displayed is 2.5.

Coastal Water Temperatures

Place Temperature

Nearby Weather Stations